Upstream stations:
Downstream station:
SHEF ID: CLVO2 Canadian River at Calvin, OK
STATION TYPE:
Regulating: Stage = 17.00, Flow = 48538
PRECIP STAGE RIV-FLOW BAT-LOAD
in ft cfs volt
Ccp-Rev Ccp-Rev Ccp-Rev Ccp-Rev
(US/Central)
09/25 00:00 0.00 5.86 358 12.97
09/25 01:00 0.00 5.86 358 12.97
09/25 02:00 0.00 5.86 358 12.97
09/25 03:00 0.00 5.86 358 12.89
09/25 04:00 0.00 5.85 354 12.89
09/25 05:00 0.00 5.85 354 12.89
09/25 06:00 0.00 5.85 354 12.81
09/25 07:00 0.00 5.85 354 12.81
09/25 08:00 0.00 5.85 354 12.81
09/25 09:00 0.00 5.85 354 12.81
09/25 10:00 0.00 5.86 358 13.60
09/25 11:00 0.00 5.86 358 13.92
09/25 12:00 0.00 5.85 354 14.16
09/25 13:00 0.00 5.84 350 14.16
09/25 14:00 0.00 5.84 350 14.08
09/25 15:00 0.00 5.83 347 13.84
09/25 16:00 0.00 5.85 354 13.68
09/25 17:00 0.00 5.83 347 13.68
09/25 18:00 0.00 5.81 340 13.68
09/25 19:00 0.00 5.81 340 13.44
09/25 20:00 0.00 5.81 340 13.05
09/25 21:00 0.00 5.81 340 12.97
09/25 22:00 0.00 5.83 347 12.97
09/25 23:00 0.00 5.85 354 12.97